Accueil
METAR-TAF:

METAR-TAF

Aéroports :

Londres-Heathrow, Angleterre

Aéroport de Londres-Heathrow

latitude: 51-29N, longitude: 000-27W, altitude: 24 m

Observation

Le bulletin a été fait il y a 22 minutes, à 08:20 UTC
Vent 5 kt de ouest, variant entre ouest/sud-ouest et ouest/nord-ouest
Température 16°C
Humidité 72%
Pression 1021 hPa
Visibilité 10 km ou plus
Nuages fragmentés à une hauteur de 4500 ft

METAR: EGLL 230820Z AUTO 27005KT 240V300 9999 BKN045 16/11 Q1021 NOSIG

Heure: 09:42 (08:42 UTC)

Prévision

Le bulletin a été fait il y a 3 heures et 50 minutes, à 04:52 UTC
Prévision valable du 23 à 06 UTC au 24 à 12 UTC
Vent 8 kt de ouest
Visibilité 10 km ou plus
Nuages épars à une hauteur de 3000 ft
Probabilité 30% :
Temporairement
du 24 à 04 UTC au 24 à 07 UTC
Visibilité: 8000 m

TAF: EGLL 230452Z 2306/2412 26008KT 9999 SCT030 PROB30 TEMPO 2404/2407 8000

Observations et prévisions météorologiques de plus de 4000 aéroports (messages METAR et TAF).

Les stations disponibles sont représentées par des disques jaunes et rouges sur la carte.

Passer la souris dessus pour voir le nom de la station.

Cliquer dessus pour voir les observations et prévisions météorologiques.

Pour changer de carte: cliquez sur les boutons verts avec une croix noire pour zoomer, sur le bouton vert avec un tiret pour effectuer un zoom arrière, ou sur les flèches vertes pour les cartes adjacentes.


METAR-TAF: